sensor_id;sensor_type;location;lat;lon;timestamp;pressure;altitude;pressure_sealevel;temperature;humidity
72370;BME280;60343;-32.030;115.880;2023-09-19T00:02:16;102238.44;;;19.00;61.38
72370;BME280;60343;-32.030;115.880;2023-09-19T00:04:51;102236.50;;;18.94;61.68
72370;BME280;60343;-32.030;115.880;2023-09-19T00:07:26;102241.91;;;18.94;62.22
72370;BME280;60343;-32.030;115.880;2023-09-19T00:10:05;102241.84;;;18.87;62.67
72370;BME280;60343;-32.030;115.880;2023-09-19T00:12:43;102247.75;;;18.91;62.81
72370;BME280;60343;-32.030;115.880;2023-09-19T00:15:26;102242.31;;;18.91;62.43
72370;BME280;60343;-32.030;115.880;2023-09-19T00:18:01;102247.25;;;18.87;62.35
72370;BME280;60343;-32.030;115.880;2023-09-19T00:20:38;102246.22;;;18.88;63.03
72370;BME280;60343;-32.030;115.880;2023-09-19T00:23:15;102241.13;;;18.78;63.69
72370;BME280;60343;-32.030;115.880;2023-09-19T00:25:50;102240.53;;;18.83;63.98
72370;BME280;60343;-32.030;115.880;2023-09-19T00:28:26;102248.19;;;18.94;63.54
72370;BME280;60343;-32.030;115.880;2023-09-19T00:31:08;102246.94;;;18.97;64.61
72370;BME280;60343;-32.030;115.880;2023-09-19T00:33:44;102245.56;;;19.01;64.60
72370;BME280;60343;-32.030;115.880;2023-09-19T00:36:20;102248.84;;;19.17;64.33
72370;BME280;60343;-32.030;115.880;2023-09-19T00:38:55;102243.81;;;19.14;64.82
72370;BME280;60343;-32.030;115.880;2023-09-19T00:41:30;102245.94;;;19.19;64.51
72370;BME280;60343;-32.030;115.880;2023-09-19T00:44:06;102251.97;;;19.36;63.31
72370;BME280;60343;-32.030;115.880;2023-09-19T00:46:47;102257.84;;;19.39;63.76
72370;BME280;60343;-32.030;115.880;2023-09-19T00:49:22;102256.59;;;19.42;64.27
72370;BME280;60343;-32.030;115.880;2023-09-19T00:51:59;102260.03;;;19.29;64.12
72370;BME280;60343;-32.030;115.880;2023-09-19T00:54:35;102269.28;;;19.35;65.04
72370;BME280;60343;-32.030;115.880;2023-09-19T00:57:10;102266.28;;;19.44;64.91
72370;BME280;60343;-32.030;115.880;2023-09-19T00:59:49;102269.13;;;19.43;63.21
72370;BME280;60343;-32.030;115.880;2023-09-19T01:02:31;102277.25;;;19.36;63.92
72370;BME280;60343;-32.030;115.880;2023-09-19T01:05:07;102282.00;;;19.34;64.47
72370;BME280;60343;-32.030;115.880;2023-09-19T01:07:42;102284.91;;;19.33;62.94
72370;BME280;60343;-32.030;115.880;2023-09-19T01:10:19;102283.56;;;19.22;63.03
72370;BME280;60343;-32.030;115.880;2023-09-19T01:12:59;102284.34;;;19.16;62.80
72370;BME280;60343;-32.030;115.880;2023-09-19T01:15:45;102281.72;;;19.08;62.76
72370;BME280;60343;-32.030;115.880;2023-09-19T01:18:43;102288.00;;;19.08;63.48
72370;BME280;60343;-32.030;115.880;2023-09-19T01:21:27;102287.81;;;19.10;63.77
72370;BME280;60343;-32.030;115.880;2023-09-19T01:24:22;102288.94;;;19.15;64.28
72370;BME280;60343;-32.030;115.880;2023-09-19T01:27:24;102281.81;;;19.14;62.00
72370;BME280;60343;-32.030;115.880;2023-09-19T01:30:20;102291.97;;;19.27;61.63
72370;BME280;60343;-32.030;115.880;2023-09-19T01:32:57;102294.41;;;19.22;60.71
72370;BME280;60343;-32.030;115.880;2023-09-19T01:35:34;102303.97;;;19.18;60.74
72370;BME280;60343;-32.030;115.880;2023-09-19T01:38:09;102303.72;;;19.13;59.96
72370;BME280;60343;-32.030;115.880;2023-09-19T01:40:50;102308.78;;;19.16;60.25
72370;BME280;60343;-32.030;115.880;2023-09-19T01:43:36;102304.06;;;19.24;60.39
72370;BME280;60343;-32.030;115.880;2023-09-19T01:46:24;102298.75;;;19.38;60.46
72370;BME280;60343;-32.030;115.880;2023-09-19T01:49:08;102303.78;;;19.55;59.62
72370;BME280;60343;-32.030;115.880;2023-09-19T01:51:55;102304.22;;;19.59;59.26
72370;BME280;60343;-32.030;115.880;2023-09-19T01:54:41;102295.63;;;19.55;58.73
72370;BME280;60343;-32.030;115.880;2023-09-19T01:57:27;102306.88;;;19.52;59.24
72370;BME280;60343;-32.030;115.880;2023-09-19T02:00:08;102304.22;;;19.59;59.86
72370;BME280;60343;-32.030;115.880;2023-09-19T02:02:51;102301.31;;;19.60;60.26
72370;BME280;60343;-32.030;115.880;2023-09-19T02:05:27;102304.81;;;19.82;60.07
72370;BME280;60343;-32.030;115.880;2023-09-19T02:08:02;102309.59;;;20.01;58.53
72370;BME280;60343;-32.030;115.880;2023-09-19T02:10:38;102303.66;;;20.19;57.62
72370;BME280;60343;-32.030;115.880;2023-09-19T02:13:14;102296.06;;;20.36;57.39
72370;BME280;60343;-32.030;115.880;2023-09-19T02:15:49;102291.75;;;20.54;57.69
72370;BME280;60343;-32.030;115.880;2023-09-19T02:18:31;102302.41;;;20.97;57.92
72370;BME280;60343;-32.030;115.880;2023-09-19T02:21:07;102292.00;;;21.20;56.31
72370;BME280;60343;-32.030;115.880;2023-09-19T02:23:43;102290.78;;;21.29;56.00
72370;BME280;60343;-32.030;115.880;2023-09-19T02:26:19;102283.88;;;21.60;55.31
72370;BME280;60343;-32.030;115.880;2023-09-19T02:28:55;102283.69;;;22.01;53.76
72370;BME280;60343;-32.030;115.880;2023-09-19T02:31:32;102278.59;;;22.37;53.32
72370;BME280;60343;-32.030;115.880;2023-09-19T02:34:13;102282.38;;;22.30;51.84
72370;BME280;60343;-32.030;115.880;2023-09-19T02:36:48;102281.84;;;22.72;51.10
72370;BME280;60343;-32.030;115.880;2023-09-19T02:39:24;102276.41;;;22.59;50.93
72370;BME280;60343;-32.030;115.880;2023-09-19T02:41:59;102274.00;;;22.24;53.17
72370;BME280;60343;-32.030;115.880;2023-09-19T02:44:34;102273.44;;;21.96;56.09
72370;BME280;60343;-32.030;115.880;2023-09-19T02:47:09;102275.50;;;21.94;56.17
72370;BME280;60343;-32.030;115.880;2023-09-19T02:49:50;102280.97;;;21.81;56.41
72370;BME280;60343;-32.030;115.880;2023-09-19T02:52:25;102280.94;;;21.42;58.06
72370;BME280;60343;-32.030;115.880;2023-09-19T02:55:00;102285.94;;;21.18;58.06
72370;BME280;60343;-32.030;115.880;2023-09-19T02:57:37;102286.44;;;20.81;59.96
72370;BME280;60343;-32.030;115.880;2023-09-19T03:00:13;102287.81;;;20.64;61.19
72370;BME280;60343;-32.030;115.880;2023-09-19T03:02:48;102285.09;;;20.64;61.28
72370;BME280;60343;-32.030;115.880;2023-09-19T03:05:30;102278.22;;;20.74;61.64
72370;BME280;60343;-32.030;115.880;2023-09-19T03:08:06;102288.50;;;20.79;61.74
72370;BME280;60343;-32.030;115.880;2023-09-19T03:10:42;102286.22;;;20.89;59.35
72370;BME280;60343;-32.030;115.880;2023-09-19T03:13:17;102280.63;;;20.97;58.48
72370;BME280;60343;-32.030;115.880;2023-09-19T03:15:55;102280.09;;;21.21;58.54
72370;BME280;60343;-32.030;115.880;2023-09-19T03:18:35;102280.31;;;21.39;57.60
72370;BME280;60343;-32.030;115.880;2023-09-19T03:21:16;102274.25;;;21.51;56.94
72370;BME280;60343;-32.030;115.880;2023-09-19T03:23:51;102279.50;;;21.72;56.78
72370;BME280;60343;-32.030;115.880;2023-09-19T03:26:26;102268.38;;;21.80;57.13
72370;BME280;60343;-32.030;115.880;2023-09-19T03:29:04;102262.53;;;21.96;55.81
72370;BME280;60343;-32.030;115.880;2023-09-19T03:31:41;102258.50;;;21.86;55.47
72370;BME280;60343;-32.030;115.880;2023-09-19T03:34:17;102255.16;;;21.90;55.60
72370;BME280;60343;-32.030;115.880;2023-09-19T03:36:58;102262.06;;;22.12;54.06
72370;BME280;60343;-32.030;115.880;2023-09-19T03:39:34;102256.25;;;22.53;54.95
72370;BME280;60343;-32.030;115.880;2023-09-19T03:42:09;102243.22;;;23.38;52.88
72370;BME280;60343;-32.030;115.880;2023-09-19T03:44:44;102240.06;;;24.09;50.70
72370;BME280;60343;-32.030;115.880;2023-09-19T03:47:19;102235.97;;;24.54;49.45
72370;BME280;60343;-32.030;115.880;2023-09-19T03:49:54;102236.41;;;24.51;47.84
72370;BME280;60343;-32.030;115.880;2023-09-19T03:52:36;102238.59;;;24.61;47.25
72370;BME280;60343;-32.030;115.880;2023-09-19T03:55:12;102230.75;;;24.10;48.12
72370;BME280;60343;-32.030;115.880;2023-09-19T03:57:50;102234.91;;;23.76;50.21
72370;BME280;60343;-32.030;115.880;2023-09-19T04:00:25;102230.53;;;23.93;48.57
72370;BME280;60343;-32.030;115.880;2023-09-19T04:03:00;102220.75;;;24.04;49.54
72370;BME280;60343;-32.030;115.880;2023-09-19T04:05:36;102227.16;;;23.73;48.75
72370;BME280;60343;-32.030;115.880;2023-09-19T04:08:17;102229.75;;;23.86;49.27
72370;BME280;60343;-32.030;115.880;2023-09-19T04:10:52;102212.81;;;23.95;48.71
72370;BME280;60343;-32.030;115.880;2023-09-19T04:13:28;102219.59;;;24.11;47.51
72370;BME280;60343;-32.030;115.880;2023-09-19T04:16:03;102217.97;;;24.28;47.53
72370;BME280;60343;-32.030;115.880;2023-09-19T04:18:39;102208.38;;;24.19;47.48
72370;BME280;60343;-32.030;115.880;2023-09-19T04:21:14;102207.84;;;24.29;48.01
72370;BME280;60343;-32.030;115.880;2023-09-19T04:23:55;102211.94;;;24.38;47.73
72370;BME280;60343;-32.030;115.880;2023-09-19T04:26:32;102212.25;;;24.48;48.28
72370;BME280;60343;-32.030;115.880;2023-09-19T04:29:07;102202.47;;;24.22;48.63
72370;BME280;60343;-32.030;115.880;2023-09-19T04:31:42;102205.91;;;24.11;50.99
72370;BME280;60343;-32.030;115.880;2023-09-19T04:34:17;102204.19;;;24.53;48.65
72370;BME280;60343;-32.030;115.880;2023-09-19T04:36:53;102194.00;;;24.42;49.24
72370;BME280;60343;-32.030;115.880;2023-09-19T04:39:34;102192.97;;;24.55;47.78
72370;BME280;60343;-32.030;115.880;2023-09-19T04:42:09;102189.75;;;24.28;49.23
72370;BME280;60343;-32.030;115.880;2023-09-19T04:44:45;102178.25;;;23.83;48.37
72370;BME280;60343;-32.030;115.880;2023-09-19T04:47:22;102181.81;;;24.02;49.13
72370;BME280;60343;-32.030;115.880;2023-09-19T04:49:57;102177.50;;;24.30;49.04
72370;BME280;60343;-32.030;115.880;2023-09-19T04:52:32;102174.63;;;23.89;48.85
72370;BME280;60343;-32.030;115.880;2023-09-19T04:55:14;102179.25;;;24.25;48.87
72370;BME280;60343;-32.030;115.880;2023-09-19T04:57:51;102168.03;;;24.45;48.90
72370;BME280;60343;-32.030;115.880;2023-09-19T05:00:27;102165.63;;;24.66;47.60
72370;BME280;60343;-32.030;115.880;2023-09-19T05:03:03;102167.31;;;24.38;47.62
72370;BME280;60343;-32.030;115.880;2023-09-19T05:05:38;102167.69;;;23.86;48.92
72370;BME280;60343;-32.030;115.880;2023-09-19T05:08:13;102158.53;;;23.56;50.23
72370;BME280;60343;-32.030;115.880;2023-09-19T05:10:55;102167.06;;;23.84;49.34
72370;BME280;60343;-32.030;115.880;2023-09-19T05:13:31;102165.53;;;23.52;50.82
72370;BME280;60343;-32.030;115.880;2023-09-19T05:16:06;102159.84;;;23.54;51.34
72370;BME280;60343;-32.030;115.880;2023-09-19T05:18:41;102162.13;;;24.11;49.64
72370;BME280;60343;-32.030;115.880;2023-09-19T05:21:17;102169.88;;;23.96;49.67
72370;BME280;60343;-32.030;115.880;2023-09-19T05:23:53;102153.69;;;23.94;49.96
72370;BME280;60343;-32.030;115.880;2023-09-19T05:26:34;102162.47;;;24.21;50.46
72370;BME280;60343;-32.030;115.880;2023-09-19T05:29:10;102164.44;;;24.62;50.00
72370;BME280;60343;-32.030;115.880;2023-09-19T05:31:45;102159.25;;;24.43;49.43
72370;BME280;60343;-32.030;115.880;2023-09-19T05:34:22;102158.59;;;24.29;49.60
72370;BME280;60343;-32.030;115.880;2023-09-19T05:36:58;102160.44;;;24.47;48.57
72370;BME280;60343;-32.030;115.880;2023-09-19T05:39:34;102155.75;;;24.95;47.82
72370;BME280;60343;-32.030;115.880;2023-09-19T05:42:16;102163.66;;;24.07;50.68
72370;BME280;60343;-32.030;115.880;2023-09-19T05:44:51;102161.78;;;24.26;51.90
72370;BME280;60343;-32.030;115.880;2023-09-19T05:47:26;102159.00;;;23.89;52.63
72370;BME280;60343;-32.030;115.880;2023-09-19T05:50:01;102152.44;;;23.04;55.00
72370;BME280;60343;-32.030;115.880;2023-09-19T05:52:37;102156.53;;;22.89;54.59
72370;BME280;60343;-32.030;115.880;2023-09-19T05:55:12;102141.97;;;23.01;54.60
72370;BME280;60343;-32.030;115.880;2023-09-19T05:57:57;102147.03;;;22.60;53.96
72370;BME280;60343;-32.030;115.880;2023-09-19T06:00:32;102139.34;;;22.88;53.42
72370;BME280;60343;-32.030;115.880;2023-09-19T06:03:08;102142.59;;;23.03;53.23
72370;BME280;60343;-32.030;115.880;2023-09-19T06:05:45;102138.06;;;22.53;54.69
72370;BME280;60343;-32.030;115.880;2023-09-19T06:08:25;102137.84;;;22.10;55.66
72370;BME280;60343;-32.030;115.880;2023-09-19T06:11:00;102132.00;;;22.51;54.66
72370;BME280;60343;-32.030;115.880;2023-09-19T06:13:43;102132.88;;;23.57;49.56
72370;BME280;60343;-32.030;115.880;2023-09-19T06:16:20;102131.94;;;23.45;50.07
72370;BME280;60343;-32.030;115.880;2023-09-19T06:18:55;102134.75;;;23.14;51.65
72370;BME280;60343;-32.030;115.880;2023-09-19T06:21:30;102132.06;;;23.93;50.40
72370;BME280;60343;-32.030;115.880;2023-09-19T06:24:07;102127.81;;;24.87;48.46
72370;BME280;60343;-32.030;115.880;2023-09-19T06:26:42;102124.50;;;24.85;50.56
72370;BME280;60343;-32.030;115.880;2023-09-19T06:29:23;102127.22;;;24.43;51.99
72370;BME280;60343;-32.030;115.880;2023-09-19T06:31:58;102122.91;;;25.18;49.25
72370;BME280;60343;-32.030;115.880;2023-09-19T06:34:33;102122.31;;;25.16;48.65
72370;BME280;60343;-32.030;115.880;2023-09-19T06:37:10;102117.41;;;25.30;48.28
72370;BME280;60343;-32.030;115.880;2023-09-19T06:39:46;102121.38;;;25.57;48.51
72370;BME280;60343;-32.030;115.880;2023-09-19T06:42:21;102119.25;;;25.59;47.92
72370;BME280;60343;-32.030;115.880;2023-09-19T06:45:02;102126.19;;;24.56;49.50
72370;BME280;60343;-32.030;115.880;2023-09-19T06:47:39;102127.94;;;23.47;52.55
72370;BME280;60343;-32.030;115.880;2023-09-19T06:50:17;102129.50;;;22.81;54.22
72370;BME280;60343;-32.030;115.880;2023-09-19T06:52:54;102125.34;;;22.34;53.79
72370;BME280;60343;-32.030;115.880;2023-09-19T06:55:30;102117.03;;;22.60;52.85
72370;BME280;60343;-32.030;115.880;2023-09-19T06:58:05;102130.19;;;23.26;52.11
72370;BME280;60343;-32.030;115.880;2023-09-19T07:00:46;102118.88;;;24.38;49.61
72370;BME280;60343;-32.030;115.880;2023-09-19T07:03:22;102123.38;;;25.04;47.39
72370;BME280;60343;-32.030;115.880;2023-09-19T07:05:57;102129.00;;;24.19;48.29
72370;BME280;60343;-32.030;115.880;2023-09-19T07:08:32;102132.16;;;23.19;50.75
72370;BME280;60343;-32.030;115.880;2023-09-19T07:11:07;102130.41;;;22.37;53.83
72370;BME280;60343;-32.030;115.880;2023-09-19T07:13:43;102127.03;;;22.35;53.71
72370;BME280;60343;-32.030;115.880;2023-09-19T07:16:24;102134.53;;;22.01;54.68
72370;BME280;60343;-32.030;115.880;2023-09-19T07:19:01;102133.81;;;22.25;55.23
72370;BME280;60343;-32.030;115.880;2023-09-19T07:21:36;102137.31;;;21.81;55.78
72370;BME280;60343;-32.030;115.880;2023-09-19T07:24:15;102129.44;;;22.56;54.69
72370;BME280;60343;-32.030;115.880;2023-09-19T07:26:51;102130.19;;;23.01;54.66
72370;BME280;60343;-32.030;115.880;2023-09-19T07:29:27;102134.09;;;22.87;54.87
72370;BME280;60343;-32.030;115.880;2023-09-19T07:32:08;102135.72;;;22.63;55.00
72370;BME280;60343;-32.030;115.880;2023-09-19T07:34:45;102132.34;;;22.61;54.27
72370;BME280;60343;-32.030;115.880;2023-09-19T07:37:20;102135.53;;;22.89;54.12
72370;BME280;60343;-32.030;115.880;2023-09-19T07:39:55;102130.50;;;23.18;52.65
72370;BME280;60343;-32.030;115.880;2023-09-19T07:42:33;102134.03;;;23.68;51.48
72370;BME280;60343;-32.030;115.880;2023-09-19T07:45:10;102145.19;;;24.21;49.75
72370;BME280;60343;-32.030;115.880;2023-09-19T07:47:52;102132.50;;;24.26;49.01
72370;BME280;60343;-32.030;115.880;2023-09-19T07:50:29;102135.84;;;24.28;49.71
72370;BME280;60343;-32.030;115.880;2023-09-19T07:53:04;102137.97;;;24.26;49.98
72370;BME280;60343;-32.030;115.880;2023-09-19T07:55:41;102128.94;;;24.08;49.93
72370;BME280;60343;-32.030;115.880;2023-09-19T07:58:16;102132.56;;;24.20;49.94
72370;BME280;60343;-32.030;115.880;2023-09-19T08:00:51;102133.66;;;24.19;48.72
72370;BME280;60343;-32.030;115.880;2023-09-19T08:03:32;102139.56;;;24.16;48.68
72370;BME280;60343;-32.030;115.880;2023-09-19T08:06:08;102130.88;;;23.46;50.56
72370;BME280;60343;-32.030;115.880;2023-09-19T08:08:44;102140.50;;;22.67;53.91
72370;BME280;60343;-32.030;115.880;2023-09-19T08:11:22;102145.25;;;21.83;56.00
72370;BME280;60343;-32.030;115.880;2023-09-19T08:13:58;102141.16;;;21.48;57.84
72370;BME280;60343;-32.030;115.880;2023-09-19T08:16:36;102136.97;;;21.32;59.31
72370;BME280;60343;-32.030;115.880;2023-09-19T08:19:17;102136.09;;;21.05;59.53
72370;BME280;60343;-32.030;115.880;2023-09-19T08:21:57;102136.47;;;21.68;57.57
72370;BME280;60343;-32.030;115.880;2023-09-19T08:24:32;102139.91;;;21.24;57.92
72370;BME280;60343;-32.030;115.880;2023-09-19T08:27:08;102142.78;;;21.03;58.74
72370;BME280;60343;-32.030;115.880;2023-09-19T08:29:46;102145.50;;;20.83;59.04
72370;BME280;60343;-32.030;115.880;2023-09-19T08:32:21;102144.84;;;20.68;59.78
72370;BME280;60343;-32.030;115.880;2023-09-19T08:35:02;102137.41;;;21.22;58.41
72370;BME280;60343;-32.030;115.880;2023-09-19T08:37:38;102141.81;;;21.17;58.89
72370;BME280;60343;-32.030;115.880;2023-09-19T08:40:13;102144.06;;;21.07;59.33
72370;BME280;60343;-32.030;115.880;2023-09-19T08:42:52;102139.84;;;20.97;58.80
72370;BME280;60343;-32.030;115.880;2023-09-19T08:45:28;102149.88;;;20.71;59.39
72370;BME280;60343;-32.030;115.880;2023-09-19T08:48:17;102147.06;;;20.38;60.83
72370;BME280;60343;-32.030;115.880;2023-09-19T08:51:07;102154.97;;;20.26;61.69
72370;BME280;60343;-32.030;115.880;2023-09-19T08:53:47;102146.31;;;20.09;62.70
72370;BME280;60343;-32.030;115.880;2023-09-19T08:56:27;102162.56;;;19.96;64.01
72370;BME280;60343;-32.030;115.880;2023-09-19T08:59:05;102161.16;;;19.73;65.59
72370;BME280;60343;-32.030;115.880;2023-09-19T09:01:41;102164.19;;;19.56;66.01
72370;BME280;60343;-32.030;115.880;2023-09-19T09:04:19;102163.63;;;19.40;66.76
72370;BME280;60343;-32.030;115.880;2023-09-19T09:07:00;102165.06;;;19.36;66.68
72370;BME280;60343;-32.030;115.880;2023-09-19T09:09:37;102167.81;;;19.42;66.49
72370;BME280;60343;-32.030;115.880;2023-09-19T09:12:14;102169.16;;;19.25;66.67
72370;BME280;60343;-32.030;115.880;2023-09-19T09:14:50;102171.63;;;19.26;66.40
72370;BME280;60343;-32.030;115.880;2023-09-19T09:17:25;102165.19;;;19.06;67.23
72370;BME280;60343;-32.030;115.880;2023-09-19T09:20:00;102181.31;;;19.08;67.53
72370;BME280;60343;-32.030;115.880;2023-09-19T09:22:51;102174.94;;;19.22;65.36
72370;BME280;60343;-32.030;115.880;2023-09-19T09:25:51;102181.97;;;19.10;65.11
72370;BME280;60343;-32.030;115.880;2023-09-19T09:28:31;102187.50;;;19.02;65.87
72370;BME280;60343;-32.030;115.880;2023-09-19T09:31:11;102192.63;;;18.90;66.54
72370;BME280;60343;-32.030;115.880;2023-09-19T09:33:57;102193.47;;;18.91;67.53
72370;BME280;60343;-32.030;115.880;2023-09-19T09:36:36;102200.75;;;18.90;68.89
72370;BME280;60343;-32.030;115.880;2023-09-19T09:39:30;102206.47;;;18.59;71.07
72370;BME280;60343;-32.030;115.880;2023-09-19T09:42:06;102209.38;;;18.58;73.30
72370;BME280;60343;-32.030;115.880;2023-09-19T09:44:41;102219.38;;;18.42;74.79
72370;BME280;60343;-32.030;115.880;2023-09-19T09:47:23;102211.81;;;18.23;75.08
72370;BME280;60343;-32.030;115.880;2023-09-19T09:50:10;102207.34;;;18.01;75.79
72370;BME280;60343;-32.030;115.880;2023-09-19T09:52:48;102207.88;;;17.82;76.67
72370;BME280;60343;-32.030;115.880;2023-09-19T09:56:01;102213.69;;;17.79;77.46
72370;BME280;60343;-32.030;115.880;2023-09-19T09:58:36;102212.84;;;17.78;75.96
72370;BME280;60343;-32.030;115.880;2023-09-19T10:01:12;102211.34;;;17.76;75.39
72370;BME280;60343;-32.030;115.880;2023-09-19T10:03:48;102218.53;;;17.69;74.06
72370;BME280;60343;-32.030;115.880;2023-09-19T10:06:23;102213.69;;;17.79;71.76
72370;BME280;60343;-32.030;115.880;2023-09-19T10:09:05;102218.66;;;17.52;72.36
72370;BME280;60343;-32.030;115.880;2023-09-19T10:12:05;102220.13;;;17.63;71.93
72370;BME280;60343;-32.030;115.880;2023-09-19T10:14:47;102216.78;;;17.53;71.73
72370;BME280;60343;-32.030;115.880;2023-09-19T10:17:26;102223.59;;;17.49;72.20
72370;BME280;60343;-32.030;115.880;2023-09-19T10:20:03;102222.28;;;17.45;72.86
72370;BME280;60343;-32.030;115.880;2023-09-19T10:22:50;102223.66;;;17.41;73.08
72370;BME280;60343;-32.030;115.880;2023-09-19T10:25:27;102225.38;;;17.56;73.66
72370;BME280;60343;-32.030;115.880;2023-09-19T10:28:11;102229.88;;;17.49;74.18
72370;BME280;60343;-32.030;115.880;2023-09-19T10:30:50;102238.06;;;17.56;74.77
72370;BME280;60343;-32.030;115.880;2023-09-19T10:33:45;102243.50;;;17.56;75.30
72370;BME280;60343;-32.030;115.880;2023-09-19T10:36:25;102239.75;;;17.57;75.09
72370;BME280;60343;-32.030;115.880;2023-09-19T10:39:04;102240.63;;;17.57;75.16
72370;BME280;60343;-32.030;115.880;2023-09-19T10:41:51;102246.09;;;17.49;75.26
72370;BME280;60343;-32.030;115.880;2023-09-19T10:44:46;102251.63;;;17.56;75.24
72370;BME280;60343;-32.030;115.880;2023-09-19T10:47:21;102252.00;;;17.53;75.00
72370;BME280;60343;-32.030;115.880;2023-09-19T10:49:57;102253.84;;;17.52;75.12
72370;BME280;60343;-32.030;115.880;2023-09-19T10:52:34;102260.66;;;17.71;75.02
72370;BME280;60343;-32.030;115.880;2023-09-19T10:55:18;102266.44;;;17.68;74.70
72370;BME280;60343;-32.030;115.880;2023-09-19T10:57:55;102270.75;;;17.77;73.90
72370;BME280;60343;-32.030;115.880;2023-09-19T11:00:58;102279.34;;;17.81;75.14
72370;BME280;60343;-32.030;115.880;2023-09-19T11:03:40;102279.03;;;17.61;75.86
72370;BME280;60343;-32.030;115.880;2023-09-19T11:06:21;102283.50;;;17.46;76.23
72370;BME280;60343;-32.030;115.880;2023-09-19T11:08:58;102281.25;;;17.35;77.35
72370;BME280;60343;-32.030;115.880;2023-09-19T11:11:47;102290.25;;;17.27;78.05
72370;BME280;60343;-32.030;115.880;2023-09-19T11:14:41;102287.13;;;17.15;78.93
72370;BME280;60343;-32.030;115.880;2023-09-19T11:17:49;102293.69;;;17.21;78.37
72370;BME280;60343;-32.030;115.880;2023-09-19T11:20:25;102289.66;;;17.17;78.54
72370;BME280;60343;-32.030;115.880;2023-09-19T11:23:28;102297.59;;;17.19;78.30
72370;BME280;60343;-32.030;115.880;2023-09-19T11:26:04;102302.31;;;17.25;78.54
72370;BME280;60343;-32.030;115.880;2023-09-19T11:29:25;102295.44;;;17.14;78.21
72370;BME280;60343;-32.030;115.880;2023-09-19T11:32:01;102299.69;;;17.08;79.00
72370;BME280;60343;-32.030;115.880;2023-09-19T11:34:47;102304.44;;;17.06;79.21
72370;BME280;60343;-32.030;115.880;2023-09-19T11:40:47;102307.81;;;17.08;79.03
72370;BME280;60343;-32.030;115.880;2023-09-19T11:43:35;102310.13;;;17.20;78.75
72370;BME280;60343;-32.030;115.880;2023-09-19T11:46:10;102306.03;;;17.24;78.48
72370;BME280;60343;-32.030;115.880;2023-09-19T11:48:50;102308.44;;;17.19;78.38
72370;BME280;60343;-32.030;115.880;2023-09-19T11:51:41;102307.91;;;17.23;77.48
72370;BME280;60343;-32.030;115.880;2023-09-19T11:54:18;102308.59;;;17.17;76.81
72370;BME280;60343;-32.030;115.880;2023-09-19T11:56:56;102313.00;;;17.18;76.99
72370;BME280;60343;-32.030;115.880;2023-09-19T11:59:32;102308.56;;;17.25;75.27
72370;BME280;60343;-32.030;115.880;2023-09-19T12:02:07;102319.56;;;17.24;75.63
72370;BME280;60343;-32.030;115.880;2023-09-19T12:04:46;102313.00;;;17.41;72.73
72370;BME280;60343;-32.030;115.880;2023-09-19T12:07:27;102317.22;;;17.43;72.36
72370;BME280;60343;-32.030;115.880;2023-09-19T12:10:06;102319.75;;;17.45;71.88
72370;BME280;60343;-32.030;115.880;2023-09-19T12:12:49;102313.81;;;17.49;71.55
72370;BME280;60343;-32.030;115.880;2023-09-19T12:15:27;102325.09;;;17.53;71.01
72370;BME280;60343;-32.030;115.880;2023-09-19T12:18:06;102322.81;;;17.42;70.87
72370;BME280;60343;-32.030;115.880;2023-09-19T12:20:45;102327.13;;;17.59;70.31
72370;BME280;60343;-32.030;115.880;2023-09-19T12:23:25;102329.91;;;17.43;70.67
72370;BME280;60343;-32.030;115.880;2023-09-19T12:26:03;102330.22;;;17.48;69.58
72370;BME280;60343;-32.030;115.880;2023-09-19T12:28:43;102343.69;;;17.56;68.89
72370;BME280;60343;-32.030;115.880;2023-09-19T12:31:20;102337.13;;;17.50;69.08
72370;BME280;60343;-32.030;115.880;2023-09-19T12:33:56;102333.59;;;17.50;68.18
72370;BME280;60343;-32.030;115.880;2023-09-19T12:36:32;102341.03;;;17.48;68.85
72370;BME280;60343;-32.030;115.880;2023-09-19T12:39:23;102336.94;;;17.60;67.53
72370;BME280;60343;-32.030;115.880;2023-09-19T12:41:59;102340.59;;;17.67;67.12
72370;BME280;60343;-32.030;115.880;2023-09-19T12:44:37;102343.69;;;17.64;67.55
72370;BME280;60343;-32.030;115.880;2023-09-19T12:47:16;102346.94;;;17.51;67.32
72370;BME280;60343;-32.030;115.880;2023-09-19T12:50:06;102342.38;;;17.52;67.40
72370;BME280;60343;-32.030;115.880;2023-09-19T12:52:44;102345.38;;;17.57;66.84
72370;BME280;60343;-32.030;115.880;2023-09-19T12:55:29;102343.75;;;17.48;66.56
72370;BME280;60343;-32.030;115.880;2023-09-19T12:58:14;102336.09;;;17.51;66.66
72370;BME280;60343;-32.030;115.880;2023-09-19T13:00:50;102343.16;;;17.61;65.80
72370;BME280;60343;-32.030;115.880;2023-09-19T13:03:27;102346.47;;;17.71;64.99
72370;BME280;60343;-32.030;115.880;2023-09-19T13:06:04;102347.31;;;17.71;64.11
72370;BME280;60343;-32.030;115.880;2023-09-19T13:08:40;102350.72;;;17.73;64.19
72370;BME280;60343;-32.030;115.880;2023-09-19T13:11:37;102336.94;;;17.60;64.28
72370;BME280;60343;-32.030;115.880;2023-09-19T13:14:17;102344.53;;;17.56;64.84
72370;BME280;60343;-32.030;115.880;2023-09-19T13:16:56;102343.97;;;17.69;63.20
72370;BME280;60343;-32.030;115.880;2023-09-19T13:19:40;102345.88;;;17.61;63.44
72370;BME280;60343;-32.030;115.880;2023-09-19T13:25:04;102344.69;;;17.63;62.53
72370;BME280;60343;-32.030;115.880;2023-09-19T13:27:49;102338.47;;;17.54;63.34